Upstream stations:
Downstream station:
SHEF ID: BRIO2 Canadian River at Bridgeport, OK
STATION TYPE:
Regulating: Stage = 15.00, Flow = 8545
STAGE RIV-FLOW
ft cfs
Ccp-Rev Ccp-Rev
(US/Central)
05/28 00:00 12.59 2176
05/28 01:00 12.57 2146
05/28 02:00 12.56 2132
05/28 03:00 12.54 2103
05/28 04:00 12.53 2089
05/28 05:00 12.51 2060
05/28 06:00 12.57 2146
05/28 07:00 12.80 2500
05/28 08:00 13.16 3130
05/28 09:00 13.06 2945
05/28 10:00 12.96 2768
05/28 11:00 12.90 2665
05/28 12:00 12.90 2665
05/28 13:00 12.88 2631
05/28 14:00 12.86 2598
05/28 15:00 12.84 2565
05/28 16:00 12.84 2565
05/28 17:00 12.84 2565
05/28 18:00 12.83 2548
05/28 19:00 12.77 2451
05/28 20:00 12.67 2295
05/28 21:00 12.63 2235
05/28 22:00 10.23 258
05/28 23:00 ---- ----